Plum Bayou, Arkansas
Current Conditions -  °F | °C
As of 10:53 AM on Wednesday 22 Oct 2014 (Local Time) from KPBF Reporting Station
Clear Clear  
Wind Chill: 64°   Ceiling: Unl
Heat Index: 64°   Visibility: 10mi
Dew Point: 49°   Wind: 8mph
Humidity: 58%   Direction: 70°ENE
Pressure: 30.24"   Gusts: NA
Location:  34.4504°N, 92.034°W
Report Text: KPBF 221553Z AUTO 07007KT 10SM CLR 18/09 A3024 RMK AO2 SLP238 T01780094
Loading
Personal Weather Stations






























Interactive Weather Map
Tropical Storm Tracking
New forecast layout! Learn more

10-Day Weather Forecast

Advertisements
Track Severe Weather on mobile